createdAt,value
2022-08-08T00:00:56.386Z,18.62
2022-08-08T00:02:03.696Z,18.67
2022-08-08T00:03:20.305Z,18.71
2022-08-08T00:04:37.894Z,18.73
2022-08-08T00:06:34.052Z,18.66
2022-08-08T00:07:57.297Z,18.52
2022-08-08T00:09:12.203Z,18.41
2022-08-08T00:10:49.733Z,18.24
2022-08-08T00:12:09.415Z,18.18
2022-08-08T00:14:16.633Z,18.09
2022-08-08T00:15:17.687Z,18.17
2022-08-08T00:16:39.447Z,18.26
2022-08-08T00:18:03.038Z,18.21
2022-08-08T00:19:22.772Z,18.30
2022-08-08T00:20:53.148Z,18.27
2022-08-08T00:22:06.010Z,18.29
2022-08-08T00:23:20.907Z,18.25
2022-08-08T00:24:30.620Z,18.33
2022-08-08T00:25:46.583Z,18.38
2022-08-08T00:26:57.264Z,18.43
2022-08-08T00:28:06.674Z,18.43
2022-08-08T00:29:44.986Z,18.37
2022-08-08T00:31:01.035Z,18.33
2022-08-08T00:32:38.406Z,18.37
2022-08-08T00:34:18.738Z,18.42
2022-08-08T00:35:37.537Z,18.46
2022-08-08T00:36:51.469Z,18.38
2022-08-08T00:38:05.626Z,18.27
2022-08-08T00:41:11.653Z,17.89
2022-08-08T00:41:12.460Z,18.08
2022-08-08T00:42:34.661Z,17.77
2022-08-08T00:43:56.308Z,17.71
2022-08-08T00:45:32.223Z,17.66
2022-08-08T00:46:57.912Z,17.68
2022-08-08T00:48:30.138Z,17.69
2022-08-08T00:50:00.368Z,17.72
2022-08-08T00:51:38.803Z,17.85
2022-08-08T00:52:51.350Z,17.85
2022-08-08T00:54:13.867Z,17.83
2022-08-08T00:55:53.193Z,17.66
2022-08-08T00:57:19.704Z,17.62
2022-08-08T00:58:30.767Z,17.68
2022-08-08T01:00:04.834Z,17.75
2022-08-08T01:03:58.681Z,18.00
2022-08-08T01:04:13.838Z,17.91
2022-08-08T01:05:58.773Z,17.89
2022-08-08T01:07:18.540Z,17.89
2022-08-08T01:09:01.717Z,17.90
2022-08-08T01:11:01.550Z,17.97
2022-08-08T01:12:43.170Z,17.95
2022-08-08T01:13:58.381Z,18.01
2022-08-08T01:15:43.590Z,18.02
2022-08-08T01:17:11.781Z,17.92
2022-08-08T01:18:25.505Z,17.72
2022-08-08T01:20:03.767Z,17.61
2022-08-08T01:22:07.219Z,17.50
2022-08-08T01:24:02.993Z,17.41
2022-08-08T01:25:26.081Z,17.37
2022-08-08T01:27:07.257Z,17.40
2022-08-08T01:28:39.052Z,17.37
2022-08-08T01:30:21.607Z,17.39
2022-08-08T01:32:12.760Z,17.38
2022-08-08T01:33:23.746Z,17.36
2022-08-08T01:34:41.799Z,17.38
2022-08-08T01:36:14.623Z,17.44
2022-08-08T01:37:56.338Z,17.40
2022-08-08T01:39:49.183Z,17.38
2022-08-08T01:41:22.258Z,17.28
2022-08-08T01:42:59.903Z,17.08
2022-08-08T01:44:26.484Z,16.94
2022-08-08T01:45:54.336Z,16.93
2022-08-08T01:48:15.681Z,16.80
2022-08-08T01:48:46.163Z,16.77
2022-08-08T01:50:17.114Z,16.82
2022-08-08T01:52:43.454Z,16.99
2022-08-08T01:54:07.468Z,17.06
2022-08-08T01:55:46.331Z,17.02
2022-08-08T01:56:34.311Z,16.95
2022-08-08T01:58:11.158Z,17.01
2022-08-08T01:59:23.802Z,17.05
2022-08-08T02:01:17.295Z,17.20
2022-08-08T02:02:49.616Z,17.25
2022-08-08T02:03:58.350Z,17.17
2022-08-08T02:05:56.392Z,17.02
2022-08-08T02:07:13.702Z,16.96
2022-08-08T02:08:45.532Z,16.99
2022-08-08T02:10:29.339Z,16.87
2022-08-08T02:11:59.549Z,16.78
2022-08-08T02:13:54.505Z,16.80
2022-08-08T02:15:03.281Z,16.92
2022-08-08T02:16:21.288Z,17.04
2022-08-08T02:17:42.538Z,17.15
2022-08-08T02:19:10.008Z,17.18
2022-08-08T02:21:12.963Z,17.23
2022-08-08T02:22:55.291Z,17.25
2022-08-08T02:24:04.806Z,17.30
2022-08-08T02:25:21.728Z,17.36
2022-08-08T02:26:30.481Z,17.36
2022-08-08T02:27:57.994Z,17.25
2022-08-08T02:29:20.957Z,17.18
2022-08-08T02:30:49.711Z,17.11
2022-08-08T02:32:22.398Z,17.14
2022-08-08T02:34:08.792Z,16.99
2022-08-08T02:36:04.129Z,16.88
2022-08-08T02:37:53.359Z,17.00
2022-08-08T02:39:40.822Z,17.02
2022-08-08T02:40:33.751Z,17.02
2022-08-08T02:41:58.780Z,17.08
2022-08-08T02:44:34.862Z,17.08
2022-08-08T02:44:57.475Z,17.03
2022-08-08T02:46:28.604Z,16.75
2022-08-08T02:48:03.475Z,16.64
2022-08-08T02:49:47.812Z,16.57
2022-08-08T02:51:46.314Z,16.53
2022-08-08T02:52:59.380Z,16.49
2022-08-08T02:54:25.952Z,16.43
2022-08-08T02:55:48.627Z,16.38
2022-08-08T02:57:44.562Z,16.33
2022-08-08T02:58:53.726Z,16.23
2022-08-08T03:00:47.103Z,16.17
2022-08-08T03:02:30.064Z,16.20
2022-08-08T03:05:04.439Z,16.23
2022-08-08T03:05:45.248Z,16.22
2022-08-08T03:07:26.876Z,16.22
2022-08-08T03:09:05.723Z,16.29
2022-08-08T03:10:33.757Z,16.28
2022-08-08T03:12:16.615Z,16.25
2022-08-08T03:15:57.188Z,16.41
2022-08-08T03:15:57.289Z,16.44
2022-08-08T03:16:57.766Z,16.31
2022-08-08T03:18:07.613Z,16.33
2022-08-08T03:19:21.679Z,16.44
2022-08-08T03:20:24.888Z,16.33
2022-08-08T03:21:54.512Z,16.24
2022-08-08T03:22:56.901Z,16.16
2022-08-08T03:24:02.138Z,16.17
2022-08-08T03:25:09.117Z,16.29
2022-08-08T03:26:22.932Z,16.40
2022-08-08T03:27:49.664Z,16.42
2022-08-08T03:29:04.235Z,16.45
2022-08-08T03:30:20.425Z,16.48
2022-08-08T03:32:06.451Z,16.48
2022-08-08T03:33:56.583Z,16.24
2022-08-08T03:34:45.643Z,16.20
2022-08-08T03:35:50.877Z,16.28
2022-08-08T03:36:57.007Z,16.31
2022-08-08T03:38:56.356Z,16.33
2022-08-08T03:39:24.292Z,16.30
2022-08-08T03:40:29.123Z,16.21
2022-08-08T03:42:11.542Z,16.12
2022-08-08T03:42:56.208Z,16.07
2022-08-08T03:44:01.549Z,16.04
2022-08-08T03:46:05.821Z,16.05
2022-08-08T03:46:46.429Z,16.07
2022-08-08T03:47:57.334Z,16.07
2022-08-08T03:49:31.016Z,16.00
2022-08-08T03:50:26.861Z,15.99
2022-08-08T03:51:51.013Z,15.97
2022-08-08T03:52:53.078Z,15.91
2022-08-08T03:53:57.331Z,15.93
2022-08-08T03:55:02.019Z,15.99
2022-08-08T03:56:31.541Z,15.88
2022-08-08T03:58:30.484Z,15.76
2022-08-08T03:58:58.249Z,15.73
2022-08-08T04:00:11.072Z,15.78
2022-08-08T04:01:24.671Z,15.76
2022-08-08T04:02:36.638Z,15.83
2022-08-08T04:03:58.723Z,15.83
2022-08-08T04:05:10.148Z,15.81
2022-08-08T04:06:15.427Z,15.83
2022-08-08T04:07:21.165Z,15.70
2022-08-08T04:08:32.917Z,15.66
2022-08-08T04:09:59.332Z,15.74
2022-08-08T04:11:10.976Z,15.78
2022-08-08T04:12:19.728Z,15.84
2022-08-08T04:13:22.893Z,15.81
2022-08-08T04:14:33.789Z,15.74
2022-08-08T04:15:39.037Z,15.68
2022-08-08T04:16:41.871Z,15.67
2022-08-08T04:17:59.068Z,15.75
2022-08-08T04:19:01.980Z,15.68
2022-08-08T04:20:06.042Z,15.75
2022-08-08T04:21:11.133Z,15.80
2022-08-08T04:22:16.573Z,15.85
2022-08-08T04:23:19.002Z,15.70
2022-08-08T04:24:28.635Z,15.76
2022-08-08T04:25:38.144Z,15.81
2022-08-08T04:26:57.065Z,15.87
2022-08-08T04:28:10.514Z,15.93
2022-08-08T04:29:22.206Z,15.98
2022-08-08T04:30:24.584Z,15.98
2022-08-08T04:31:56.696Z,16.03
2022-08-08T04:32:51.208Z,16.04
2022-08-08T04:33:56.489Z,16.08
2022-08-08T04:34:58.684Z,16.02
2022-08-08T04:36:06.347Z,16.02
2022-08-08T04:37:08.431Z,16.04
2022-08-08T04:38:10.675Z,16.00
2022-08-08T04:39:48.143Z,16.03
2022-08-08T04:40:53.568Z,16.05
2022-08-08T04:41:57.308Z,15.99
2022-08-08T04:43:01.526Z,15.98
2022-08-08T04:44:10.515Z,16.05
2022-08-08T04:45:15.518Z,16.11
2022-08-08T04:46:18.580Z,16.17
2022-08-08T04:47:24.445Z,16.21
2022-08-08T04:48:26.841Z,16.24
2022-08-08T04:49:58.623Z,16.26
2022-08-08T04:50:50.839Z,16.38
2022-08-08T04:51:58.302Z,16.35
2022-08-08T04:53:04.990Z,16.29
2022-08-08T04:54:40.135Z,16.27
2022-08-08T04:55:55.218Z,16.24
2022-08-08T04:56:58.116Z,16.25
2022-08-08T04:58:00.148Z,16.32
2022-08-08T04:59:02.209Z,16.34
2022-08-08T05:00:06.922Z,16.37
2022-08-08T05:01:11.276Z,16.38
2022-08-08T05:02:30.612Z,16.31
2022-08-08T05:04:10.049Z,16.38
2022-08-08T05:04:55.313Z,16.41
2022-08-08T05:06:12.535Z,16.45
2022-08-08T05:07:18.650Z,16.39
2022-08-08T05:08:20.753Z,16.35
2022-08-08T05:09:29.146Z,16.40
2022-08-08T05:10:31.265Z,16.40
2022-08-08T05:11:38.907Z,16.35
2022-08-08T05:12:42.949Z,16.30
2022-08-08T05:14:02.534Z,16.27
2022-08-08T05:15:08.207Z,16.32
2022-08-08T05:16:52.484Z,16.39
2022-08-08T05:17:53.986Z,16.45
2022-08-08T05:18:58.826Z,16.50
2022-08-08T05:20:11.367Z,16.52
2022-08-08T05:21:19.412Z,16.58
2022-08-08T05:22:22.741Z,16.59
2022-08-08T05:23:26.182Z,16.63
2022-08-08T05:24:32.359Z,16.66
2022-08-08T05:25:40.480Z,16.72
2022-08-08T05:26:46.859Z,16.82
2022-08-08T05:27:51.051Z,16.85
2022-08-08T05:29:04.992Z,16.82
2022-08-08T05:30:13.622Z,16.78
2022-08-08T05:32:04.461Z,16.86
2022-08-08T05:32:42.624Z,16.89
2022-08-08T05:33:49.464Z,16.96
2022-08-08T05:34:53.648Z,17.12
2022-08-08T05:36:02.418Z,17.14
2022-08-08T05:37:07.597Z,17.11
2022-08-08T05:38:31.991Z,17.18
2022-08-08T05:39:46.916Z,17.38
2022-08-08T05:40:57.614Z,17.50
2022-08-08T05:42:00.826Z,17.60
2022-08-08T05:43:38.067Z,17.72
2022-08-08T05:44:46.230Z,18.00
2022-08-08T05:45:53.049Z,18.06
2022-08-08T05:47:03.252Z,18.10
2022-08-08T05:48:09.702Z,18.17
2022-08-08T05:49:14.646Z,18.12
2022-08-08T05:50:18.718Z,18.17
2022-08-08T05:51:22.111Z,18.23
2022-08-08T05:52:35.598Z,18.28
2022-08-08T05:54:26.012Z,18.29
2022-08-08T05:55:04.518Z,18.34
2022-08-08T05:56:15.454Z,18.42
2022-08-08T05:58:05.662Z,18.46
2022-08-08T05:58:57.929Z,18.52
2022-08-08T06:00:25.225Z,18.66
2022-08-08T06:01:57.033Z,18.75
2022-08-08T06:03:17.390Z,18.80
2022-08-08T06:04:29.964Z,19.15
2022-08-08T06:05:36.434Z,19.59
2022-08-08T06:06:48.133Z,20.13
2022-08-08T06:08:01.997Z,20.92
2022-08-08T06:10:00.360Z,21.79
2022-08-08T06:10:33.059Z,22.63
2022-08-08T06:11:39.669Z,23.16
2022-08-08T06:12:49.173Z,23.87
2022-08-08T06:13:51.983Z,24.35
2022-08-08T06:15:00.479Z,24.73
2022-08-08T06:16:03.264Z,25.00
2022-08-08T06:17:32.222Z,25.34
2022-08-08T06:18:51.394Z,25.69
2022-08-08T06:19:55.231Z,26.23
2022-08-08T06:20:59.512Z,26.61
2022-08-08T06:22:32.214Z,26.93
2022-08-08T06:23:52.573Z,26.57
2022-08-08T06:24:53.510Z,26.59
2022-08-08T06:26:39.082Z,26.45
2022-08-08T06:27:48.310Z,26.59
2022-08-08T06:29:02.931Z,27.06
2022-08-08T06:30:26.469Z,27.00
2022-08-08T06:31:52.855Z,26.98
2022-08-08T06:33:00.883Z,27.20
2022-08-08T06:34:25.953Z,27.39
2022-08-08T06:36:04.711Z,27.59
2022-08-08T06:36:57.033Z,27.65
2022-08-08T06:38:13.995Z,27.35
2022-08-08T06:39:22.340Z,27.66
2022-08-08T06:40:28.906Z,28.01
2022-08-08T06:41:39.138Z,28.13
2022-08-08T06:42:53.661Z,28.48
2022-08-08T06:44:03.115Z,28.60
2022-08-08T06:45:09.519Z,28.51
2022-08-08T06:46:12.929Z,28.61
2022-08-08T06:47:22.109Z,28.89
2022-08-08T06:48:26.711Z,29.02
2022-08-08T06:49:55.685Z,29.16
2022-08-08T06:50:55.601Z,29.14
2022-08-08T06:51:59.593Z,29.26
2022-08-08T06:53:09.709Z,29.14
2022-08-08T06:54:18.015Z,28.94
2022-08-08T06:55:21.747Z,28.98
2022-08-08T06:56:25.055Z,29.03
2022-08-08T06:57:29.441Z,29.53
2022-08-08T06:58:50.061Z,30.08
2022-08-08T07:00:12.462Z,30.55
2022-08-08T07:02:16.720Z,31.00
2022-08-08T07:02:51.633Z,31.02
2022-08-08T07:04:37.225Z,31.24
2022-08-08T07:06:01.984Z,31.14
2022-08-08T07:07:12.358Z,30.85
2022-08-08T07:08:25.341Z,30.89
2022-08-08T07:09:56.470Z,30.74
2022-08-08T07:11:05.514Z,30.44
2022-08-08T07:12:14.679Z,30.51
2022-08-08T07:13:22.910Z,30.46
2022-08-08T07:14:45.115Z,30.97
2022-08-08T07:16:10.813Z,30.98
2022-08-08T07:17:19.756Z,30.90
2022-08-08T07:18:49.278Z,31.08
2022-08-08T07:20:03.056Z,31.60
2022-08-08T07:21:18.524Z,31.98
2022-08-08T07:22:40.082Z,32.30
2022-08-08T07:23:57.509Z,32.29
2022-08-08T07:25:11.101Z,32.56
2022-08-08T07:26:32.983Z,32.70
2022-08-08T07:28:01.811Z,32.73
2022-08-08T07:29:07.936Z,32.80
2022-08-08T07:30:16.876Z,32.72
2022-08-08T07:31:28.393Z,32.94
2022-08-08T07:32:31.625Z,33.13
2022-08-08T07:33:37.577Z,33.13
2022-08-08T07:35:00.306Z,32.97
2022-08-08T07:36:05.460Z,32.68
2022-08-08T07:37:13.539Z,32.71
2022-08-08T07:38:24.704Z,32.82
2022-08-08T07:39:45.836Z,32.94
2022-08-08T07:40:59.164Z,33.23
2022-08-08T07:42:19.024Z,33.17
2022-08-08T07:43:32.105Z,32.88
2022-08-08T07:44:43.735Z,32.82
2022-08-08T07:46:05.153Z,32.82
2022-08-08T07:47:12.976Z,32.81
2022-08-08T07:48:19.906Z,32.53
2022-08-08T07:49:28.661Z,32.36
2022-08-08T07:50:37.294Z,32.25
2022-08-08T07:51:45.141Z,32.58
2022-08-08T07:53:06.346Z,32.30
2022-08-08T07:54:27.228Z,32.47
2022-08-08T07:55:36.391Z,32.97
2022-08-08T07:57:08.832Z,32.90
2022-08-08T07:58:25.947Z,32.56
2022-08-08T07:59:37.697Z,31.98
2022-08-08T08:00:51.099Z,32.07
2022-08-08T08:02:37.199Z,31.63
2022-08-08T08:03:41.250Z,32.00
2022-08-08T08:04:55.976Z,32.42
2022-08-08T08:06:06.427Z,32.79
2022-08-08T08:07:16.492Z,33.19
2022-08-08T08:08:20.961Z,33.45
2022-08-08T08:09:26.819Z,33.43
2022-08-08T08:10:35.990Z,33.39
2022-08-08T08:11:51.917Z,32.92
2022-08-08T08:13:25.906Z,32.40
2022-08-08T08:15:05.007Z,32.60
2022-08-08T08:16:13.828Z,31.50
2022-08-08T08:17:20.983Z,31.47
2022-08-08T08:18:31.648Z,31.80
2022-08-08T08:19:45.517Z,31.73
2022-08-08T08:20:53.765Z,32.15
2022-08-08T08:22:00.796Z,32.35
2022-08-08T08:23:12.405Z,32.50
2022-08-08T08:24:18.654Z,32.37
2022-08-08T08:25:42.918Z,32.25
2022-08-08T08:26:46.798Z,32.30
2022-08-08T08:27:55.070Z,31.72
2022-08-08T08:28:57.204Z,31.48
2022-08-08T08:29:59.356Z,31.74
2022-08-08T08:31:04.942Z,31.89
2022-08-08T08:32:11.060Z,32.16
2022-08-08T08:33:13.986Z,32.56
2022-08-08T08:34:16.272Z,32.75
2022-08-08T08:35:29.825Z,32.72
2022-08-08T08:36:51.278Z,32.90
2022-08-08T08:38:15.872Z,32.93
2022-08-08T08:39:22.950Z,32.64
2022-08-08T08:40:29.305Z,32.72
2022-08-08T08:41:37.222Z,32.68
2022-08-08T08:42:40.289Z,32.70
2022-08-08T08:43:49.317Z,32.47
2022-08-08T08:44:51.855Z,32.84
2022-08-08T08:45:57.781Z,32.93
2022-08-08T08:47:03.882Z,32.67
2022-08-08T08:48:10.658Z,32.49
2022-08-08T08:49:22.200Z,32.27
2022-08-08T08:50:33.108Z,31.12
2022-08-08T08:51:50.909Z,30.74
2022-08-08T08:52:59.790Z,30.93
2022-08-08T08:54:09.605Z,31.34
2022-08-08T08:55:15.317Z,31.50
2022-08-08T08:56:24.158Z,31.61
2022-08-08T08:57:34.635Z,31.85
2022-08-08T08:58:46.899Z,31.82
2022-08-08T08:59:59.297Z,31.83
2022-08-08T09:01:08.605Z,31.72
2022-08-08T09:02:20.811Z,31.50
2022-08-08T09:03:45.617Z,30.95
2022-08-08T09:04:56.055Z,28.88
2022-08-08T09:05:59.619Z,28.64
2022-08-08T09:07:02.703Z,29.05
2022-08-08T09:08:20.777Z,29.56
2022-08-08T09:09:39.157Z,29.82
2022-08-08T09:10:55.658Z,30.32
2022-08-08T09:12:08.046Z,30.26
2022-08-08T09:13:13.568Z,30.17
2022-08-08T09:14:22.611Z,29.96
2022-08-08T09:15:40.720Z,30.33
2022-08-08T09:16:45.355Z,30.77
2022-08-08T09:17:55.871Z,30.93
2022-08-08T09:19:02.440Z,30.96
2022-08-08T09:21:56.514Z,30.45
2022-08-08T09:21:59.385Z,30.45
2022-08-08T09:22:54.133Z,30.71
2022-08-08T09:24:02.288Z,31.06
2022-08-08T09:25:07.892Z,30.74
2022-08-08T09:26:25.005Z,29.94
2022-08-08T09:27:41.807Z,29.96
2022-08-08T09:28:52.332Z,30.55
2022-08-08T09:30:10.739Z,30.60
2022-08-08T09:31:56.687Z,30.81
2022-08-08T09:33:54.022Z,30.66
2022-08-08T09:34:34.458Z,30.09
2022-08-08T09:35:50.098Z,30.48
2022-08-08T09:37:34.079Z,30.25
2022-08-08T09:39:00.051Z,30.02
2022-08-08T09:40:11.170Z,29.86
2022-08-08T09:41:21.308Z,29.84
2022-08-08T09:42:28.479Z,29.66
2022-08-08T09:43:41.110Z,29.79
2022-08-08T09:45:20.627Z,30.07
2022-08-08T09:46:39.002Z,30.22
2022-08-08T09:48:04.366Z,30.03
2022-08-08T09:49:41.205Z,29.83
2022-08-08T09:50:34.890Z,29.87
2022-08-08T09:51:41.518Z,29.46
2022-08-08T09:53:22.269Z,28.82
2022-08-08T09:54:40.773Z,28.49
2022-08-08T09:56:04.812Z,28.43
2022-08-08T09:57:16.225Z,28.45
2022-08-08T09:58:27.787Z,28.54
2022-08-08T10:00:01.665Z,28.19
2022-08-08T10:01:59.363Z,28.31
2022-08-08T10:02:48.288Z,28.41
2022-08-08T10:03:55.932Z,28.63
2022-08-08T10:05:26.650Z,28.35
2022-08-08T10:06:42.723Z,27.67
2022-08-08T10:07:59.887Z,27.19
2022-08-08T10:09:02.959Z,27.20
2022-08-08T10:10:08.544Z,27.05
2022-08-08T10:12:27.157Z,27.25
2022-08-08T10:12:54.286Z,27.84
2022-08-08T10:14:06.091Z,28.40
2022-08-08T10:15:18.342Z,28.59
2022-08-08T10:16:21.678Z,28.96
2022-08-08T10:17:56.329Z,29.23
2022-08-08T10:19:04.155Z,29.36
2022-08-08T10:20:06.534Z,29.54
2022-08-08T10:21:26.212Z,29.52
2022-08-08T10:22:34.190Z,29.70
2022-08-08T10:23:47.043Z,29.79
2022-08-08T10:25:01.329Z,28.99
2022-08-08T10:26:03.784Z,28.94
2022-08-08T10:27:06.948Z,29.11
2022-08-08T10:28:21.696Z,29.23
2022-08-08T10:29:58.688Z,29.19
2022-08-08T10:31:46.723Z,29.20
2022-08-08T10:32:54.369Z,28.79
2022-08-08T10:34:18.791Z,28.57
2022-08-08T10:36:07.234Z,28.14
2022-08-08T10:36:46.742Z,27.47
2022-08-08T10:38:02.247Z,27.65
2022-08-08T10:39:09.469Z,27.73
2022-08-08T10:40:16.144Z,27.81
2022-08-08T10:41:25.556Z,27.52
2022-08-08T10:42:44.887Z,27.64
2022-08-08T10:43:51.858Z,27.46
2022-08-08T10:45:01.750Z,27.20
2022-08-08T10:46:03.729Z,27.15
2022-08-08T10:47:14.059Z,26.81
2022-08-08T10:48:16.761Z,26.88
2022-08-08T10:50:00.720Z,27.01
2022-08-08T10:50:46.939Z,26.96
2022-08-08T10:51:51.518Z,27.13
2022-08-08T10:53:00.985Z,27.47
2022-08-08T10:54:03.541Z,27.81
2022-08-08T10:55:09.185Z,27.83
2022-08-08T10:56:10.899Z,27.78
2022-08-08T10:57:41.353Z,27.74
2022-08-08T10:58:58.557Z,27.52
2022-08-08T11:00:00.723Z,27.52
2022-08-08T11:01:10.697Z,27.64
2022-08-08T11:02:14.789Z,27.76
2022-08-08T11:03:18.711Z,27.84
2022-08-08T11:04:53.018Z,27.88
2022-08-08T11:06:00.599Z,28.01
2022-08-08T11:07:06.830Z,28.09
2022-08-08T11:08:38.537Z,27.98
2022-08-08T11:09:47.157Z,28.03
2022-08-08T11:11:00.289Z,28.05
2022-08-08T11:12:13.440Z,27.99
2022-08-08T11:13:30.419Z,27.51
2022-08-08T11:14:48.642Z,26.85
2022-08-08T11:15:58.973Z,26.86
2022-08-08T11:17:03.875Z,26.93
2022-08-08T11:18:08.404Z,27.05
2022-08-08T11:19:12.311Z,27.20
2022-08-08T11:20:18.192Z,27.39
2022-08-08T11:21:24.682Z,27.54
2022-08-08T11:22:41.861Z,27.69
2022-08-08T11:23:47.123Z,27.80
2022-08-08T11:25:14.486Z,27.99
2022-08-08T11:26:27.465Z,27.91
2022-08-08T11:27:37.299Z,27.77
2022-08-08T11:28:40.826Z,28.04
2022-08-08T11:30:04.505Z,28.26
2022-08-08T11:31:09.835Z,28.17
2022-08-08T11:32:13.350Z,28.17
2022-08-08T11:33:15.976Z,28.26
2022-08-08T11:34:23.529Z,27.96
2022-08-08T11:35:43.377Z,27.78
2022-08-08T11:36:51.028Z,27.77
2022-08-08T11:38:37.126Z,27.80
2022-08-08T11:39:20.045Z,27.92
2022-08-08T11:40:26.577Z,27.77
2022-08-08T11:41:33.610Z,27.58
2022-08-08T11:42:37.086Z,27.72
2022-08-08T11:43:42.101Z,27.95
2022-08-08T11:44:45.938Z,28.13
2022-08-08T11:46:14.201Z,28.29
2022-08-08T11:47:17.177Z,28.09
2022-08-08T11:48:20.459Z,28.05
2022-08-08T11:49:23.652Z,27.99
2022-08-08T11:50:26.104Z,28.18
2022-08-08T11:51:40.394Z,28.43
2022-08-08T11:52:53.414Z,28.27
2022-08-08T11:53:59.197Z,27.88
2022-08-08T11:55:26.615Z,27.86
2022-08-08T11:56:35.003Z,27.90
2022-08-08T11:57:36.902Z,27.81
2022-08-08T11:58:38.660Z,28.04
2022-08-08T12:00:05.639Z,28.43
2022-08-08T12:01:18.084Z,28.51
2022-08-08T12:02:41.856Z,28.48
2022-08-08T12:03:54.996Z,28.09
2022-08-08T12:05:02.316Z,28.16
2022-08-08T12:06:15.049Z,28.03
2022-08-08T12:07:17.940Z,28.35
2022-08-08T12:08:38.480Z,28.54
2022-08-08T12:09:59.433Z,28.61
2022-08-08T12:11:05.204Z,28.34
2022-08-08T12:12:07.256Z,28.48
2022-08-08T12:13:12.103Z,28.20
2022-08-08T12:14:23.979Z,27.91
2022-08-08T12:15:42.178Z,27.88
2022-08-08T12:16:52.470Z,28.10
2022-08-08T12:17:54.749Z,28.30
2022-08-08T12:18:57.023Z,28.30
2022-08-08T12:19:58.669Z,28.17
2022-08-08T12:21:00.474Z,27.96
2022-08-08T12:22:12.815Z,27.56
2022-08-08T12:23:40.069Z,27.60
2022-08-08T12:24:53.667Z,27.95
2022-08-08T12:26:10.751Z,28.26
2022-08-08T12:27:19.956Z,28.48
2022-08-08T12:28:22.667Z,28.61
2022-08-08T12:29:41.033Z,28.71
2022-08-08T12:30:48.039Z,28.69
2022-08-08T12:32:13.485Z,28.68
2022-08-08T12:33:24.173Z,28.60
2022-08-08T12:34:41.746Z,28.74
2022-08-08T12:35:52.557Z,28.70
2022-08-08T12:37:05.527Z,28.49
2022-08-08T12:38:17.700Z,28.18
2022-08-08T12:39:56.172Z,28.29
2022-08-08T12:40:58.467Z,28.53
2022-08-08T12:42:04.949Z,28.62
2022-08-08T12:43:06.946Z,28.65
2022-08-08T12:44:14.433Z,28.64
2022-08-08T12:45:57.921Z,28.65
2022-08-08T12:47:09.001Z,28.43
2022-08-08T12:48:37.213Z,28.63
2022-08-08T12:49:43.693Z,28.73
2022-08-08T12:50:49.507Z,28.68
2022-08-08T12:52:00.034Z,28.80
2022-08-08T12:53:02.609Z,28.95
2022-08-08T12:54:24.561Z,29.14
2022-08-08T12:55:35.688Z,28.83
2022-08-08T12:56:49.975Z,28.79
2022-08-08T12:57:56.910Z,28.92
2022-08-08T12:58:59.206Z,29.21
2022-08-08T13:00:05.071Z,29.27
2022-08-08T13:01:15.617Z,29.11
2022-08-08T13:02:28.266Z,29.27
2022-08-08T13:03:34.278Z,29.44
2022-08-08T13:04:38.418Z,29.08
2022-08-08T13:06:03.917Z,29.23
2022-08-08T13:07:15.746Z,29.42
2022-08-08T13:08:22.120Z,29.50
2022-08-08T13:10:05.746Z,29.39
2022-08-08T13:12:24.751Z,29.33
2022-08-08T13:13:05.891Z,29.58
2022-08-08T13:14:15.314Z,29.68
2022-08-08T13:15:20.210Z,29.96
2022-08-08T13:16:25.699Z,30.23
2022-08-08T13:18:09.148Z,30.36
2022-08-08T13:18:57.541Z,30.23
2022-08-08T13:20:12.237Z,30.53
2022-08-08T13:21:16.432Z,30.60
2022-08-08T13:22:18.837Z,30.31
2022-08-08T13:23:30.897Z,30.33
2022-08-08T13:24:45.093Z,30.30
2022-08-08T13:25:59.057Z,30.27
2022-08-08T13:27:04.635Z,30.25
2022-08-08T13:28:06.624Z,30.26
2022-08-08T13:29:11.187Z,29.86
2022-08-08T13:30:18.859Z,29.81
2022-08-08T13:31:22.942Z,29.85
2022-08-08T13:32:27.353Z,30.05
2022-08-08T13:33:41.998Z,30.12
2022-08-08T13:34:44.560Z,30.03
2022-08-08T13:35:55.337Z,29.64
2022-08-08T13:36:58.548Z,29.63
2022-08-08T13:38:06.417Z,29.57
2022-08-08T13:39:09.773Z,29.69
2022-08-08T13:40:17.787Z,29.85
2022-08-08T13:41:37.859Z,29.17
2022-08-08T13:42:42.176Z,28.99
2022-08-08T13:43:47.115Z,28.80
2022-08-08T13:44:56.307Z,28.72
2022-08-08T13:46:26.874Z,28.73
2022-08-08T13:47:30.519Z,28.87
2022-08-08T13:48:43.946Z,28.90
2022-08-08T13:50:36.351Z,28.77
2022-08-08T13:51:37.486Z,27.94
2022-08-08T13:52:50.615Z,27.86
2022-08-08T13:54:00.373Z,27.92
2022-08-08T13:55:05.958Z,27.85
2022-08-08T13:56:11.767Z,27.78
2022-08-08T13:57:16.025Z,27.98
2022-08-08T13:58:20.731Z,28.09
2022-08-08T13:59:49.059Z,27.99
2022-08-08T14:00:51.180Z,28.02
2022-08-08T14:01:57.893Z,28.27
2022-08-08T14:03:20.116Z,28.58
2022-08-08T14:04:27.607Z,28.97
2022-08-08T14:05:34.469Z,29.27
2022-08-08T14:06:45.483Z,29.65
2022-08-08T14:07:52.323Z,29.94
2022-08-08T14:08:56.841Z,29.87
2022-08-08T14:10:17.004Z,29.79
2022-08-08T14:11:24.736Z,29.68
2022-08-08T14:12:29.227Z,29.57
2022-08-08T14:13:34.159Z,29.24
2022-08-08T14:14:46.257Z,29.12
2022-08-08T14:15:50.390Z,28.97
2022-08-08T14:16:52.289Z,28.79
2022-08-08T14:18:36.379Z,28.69
2022-08-08T14:19:57.072Z,28.40
2022-08-08T14:21:12.629Z,28.45
2022-08-08T14:22:21.415Z,28.49
2022-08-08T14:24:07.069Z,28.53
2022-08-08T14:25:00.545Z,28.83
2022-08-08T14:26:11.071Z,28.82
2022-08-08T14:27:27.126Z,28.82
2022-08-08T14:28:30.496Z,28.80
2022-08-08T14:29:40.280Z,28.40
2022-08-08T14:30:42.422Z,28.43
2022-08-08T14:32:09.312Z,28.21
2022-08-08T14:33:25.660Z,27.95
2022-08-08T14:34:32.077Z,27.90
2022-08-08T14:35:35.757Z,28.15
2022-08-08T14:36:40.741Z,28.44
2022-08-08T14:37:59.778Z,28.50
2022-08-08T14:39:11.462Z,28.50
2022-08-08T14:40:21.369Z,28.45
2022-08-08T14:41:53.519Z,28.45
2022-08-08T14:42:55.146Z,28.73
2022-08-08T14:44:11.690Z,28.48
2022-08-08T14:45:14.956Z,28.36
2022-08-08T14:46:32.856Z,28.53
2022-08-08T14:47:46.004Z,28.50
2022-08-08T14:48:57.346Z,28.53
2022-08-08T14:50:10.571Z,28.49
2022-08-08T14:51:17.809Z,28.66
2022-08-08T14:52:21.051Z,28.67
2022-08-08T14:53:23.775Z,28.67
2022-08-08T14:54:28.777Z,28.25
2022-08-08T14:55:42.166Z,28.33
2022-08-08T14:56:44.461Z,28.25
2022-08-08T14:58:06.296Z,28.25
2022-08-08T14:59:22.246Z,28.31
2022-08-08T15:00:34.759Z,28.11
2022-08-08T15:01:41.277Z,27.98
2022-08-08T15:02:59.067Z,27.68
2022-08-08T15:04:13.214Z,27.95
2022-08-08T15:05:17.725Z,28.20
2022-08-08T15:06:24.317Z,28.47
2022-08-08T15:07:39.526Z,28.45
2022-08-08T15:08:53.076Z,28.43
2022-08-08T15:09:57.036Z,28.47
2022-08-08T15:11:00.627Z,28.20
2022-08-08T15:12:02.259Z,28.31
2022-08-08T15:13:05.421Z,28.16
2022-08-08T15:14:12.822Z,27.95
2022-08-08T15:15:18.795Z,27.66
2022-08-08T15:16:39.141Z,27.66
2022-08-08T15:17:45.394Z,27.80
2022-08-08T15:18:51.412Z,28.05
2022-08-08T15:19:53.734Z,28.09
2022-08-08T15:20:55.993Z,28.14
2022-08-08T15:21:58.131Z,28.19
2022-08-08T15:22:59.821Z,28.18
2022-08-08T15:24:03.782Z,28.17
2022-08-08T15:25:08.721Z,27.99
2022-08-08T15:26:20.497Z,27.79
2022-08-08T15:28:03.311Z,27.80
2022-08-08T15:28:43.766Z,27.90
2022-08-08T15:29:46.933Z,28.11
2022-08-08T15:30:50.708Z,28.27
2022-08-08T15:32:17.433Z,28.41
2022-08-08T15:33:35.345Z,28.57
2022-08-08T15:34:37.475Z,28.55
2022-08-08T15:35:41.451Z,28.55
2022-08-08T15:36:43.102Z,28.63
2022-08-08T15:37:44.951Z,28.67
2022-08-08T15:38:50.164Z,28.73
2022-08-08T15:39:53.603Z,28.64
2022-08-08T15:40:56.569Z,28.54
2022-08-08T15:42:00.188Z,28.40
2022-08-08T15:43:34.917Z,28.35
2022-08-08T15:44:26.527Z,28.37
2022-08-08T15:45:29.855Z,28.27
2022-08-08T15:46:35.191Z,28.11
2022-08-08T15:47:37.453Z,27.82
2022-08-08T15:48:39.104Z,27.79
2022-08-08T15:49:43.925Z,27.86
2022-08-08T15:51:00.948Z,27.97
2022-08-08T15:52:06.268Z,27.89
2022-08-08T15:53:08.661Z,27.90
2022-08-08T15:54:18.359Z,28.01
2022-08-08T15:55:34.434Z,28.02
2022-08-08T15:56:36.076Z,28.03
2022-08-08T15:57:39.913Z,28.12
2022-08-08T15:58:45.947Z,28.23
2022-08-08T16:00:18.047Z,28.25
2022-08-08T16:01:15.215Z,28.21
2022-08-08T16:02:17.744Z,28.24
2022-08-08T16:03:19.533Z,28.19
2022-08-08T16:04:21.132Z,28.30
2022-08-08T16:05:35.864Z,28.11
2022-08-08T16:06:53.957Z,27.92
2022-08-08T16:07:57.092Z,27.97